Five Points, North Carolina
Current Conditions -  °F | °C
As of 10:51 AM on Sunday 23 Nov 2014 (Local Time) from KRDU Reporting Station
Overcast Overcast  
Wind Chill: 50°   Ceiling: 12000
Heat Index: 50°   Visibility: 10mi
Dew Point: 40°   Wind: 6mph
Humidity: 68%   Direction: 120°ESE
Pressure: 30.21"   Gusts: NA
Location:  35.8084°N, 78.6471°W
Report Text: KRDU 231551Z 12005KT 10SM FEW038 SCT080 OVC120 10/04 A3021 RMK AO2 PRESFR SLP231 T01000044 $
Loading
Personal Weather Stations






























Interactive Weather Map New forecast layout! Learn more

10-Day Weather Forecast

Advertisements
Track Severe Weather on mobile